Date,TemperatureHighF,TemperatureAvgF,TemperatureLowF,DewpointHighF,DewpointAvgF,DewpointLowF,HumidityHigh,HumidityAvg,HumidityLow,PressureMaxIn,PressureMinIn,WindSpeedMaxMPH,WindSpeedAvgMPH,GustSpeedMaxMPH,PrecipitationSumIn
2013-1-1,71.0,65.3,57.0,-99.9,-99.9,-99.9,0,0,100,0.00,40.00,22,-12,31,0.00
2013-1-2,61.0,50.3,44.0,-99.9,-99.9,-99.9,0,0,100,0.00,40.00,22,16,30,0.00
2013-1-3,57.0,47.0,45.0,-99.9,-99.9,-99.9,0,0,100,0.00,40.00,23,16,31,0.00
2013-1-4,58.0,47.1,46.0,-99.9,-99.9,-99.9,0,0,100,0.00,40.00,21,14,32,0.00
2013-1-5,50.0,47.6,46.0,-99.9,-99.9,-99.9,0,0,100,0.00,40.00,24,17,33,0.00
2013-1-6,56.0,52.5,49.0,-99.9,-99.9,-99.9,0,0,100,0.00,40.00,17,10,25,0.00
2013-1-7,63.0,56.8,49.0,-99.9,-99.9,-99.9,0,0,100,0.00,40.00,11,-16,15,0.00
2013-1-8,72.0,67.1,63.0,-99.9,-99.9,-99.9,0,0,100,0.00,40.00,28,-34,38,0.00
2013-1-9,70.0,63.3,59.0,-99.9,-99.9,-99.9,0,0,100,0.00,40.00,13,-16,19,0.00
2013-1-10,64.0,59.8,56.0,-99.9,-99.9,-99.9,0,0,100,0.00,40.00,10,-109,16,0.00
2013-1-11,75.0,66.6,60.0,-99.9,-99.9,-99.9,0,0,100,0.00,40.00,18,-82,21,0.00
2013-1-12,77.0,72.4,69.0,-99.9,-99.9,-99.9,0,0,100,0.00,40.00,23,17,36,0.00
2013-1-13,73.0,61.3,52.0,-99.9,-99.9,-99.9,0,0,100,0.00,40.00,27,13,34,0.00
2013-1-14,52.0,49.8,48.0,-99.9,-99.9,-99.9,0,0,100,0.00,40.00,21,14,28,0.00
2013-1-15,50.0,47.8,44.0,-99.9,-99.9,-99.9,0,0,100,0.00,40.00,21,15,30,0.00
2013-1-16,52.0,46.6,43.0,-99.9,-99.9,-99.9,0,0,100,0.00,40.00,21,-10,31,0.00
2013-1-17,58.0,50.5,39.0,-99.9,-99.9,-99.9,0,0,100,0.00,40.00,14,-10,18,0.00
2013-1-18,65.0,56.2,48.0,-99.9,-99.9,-99.9,0,0,100,0.00,40.00,8,-60,10,0.00
2013-1-19,71.0,61.0,52.0,-99.9,-99.9,-99.9,0,0,100,0.00,40.00,2,-282,6,0.00
2013-1-20,73.0,63.8,56.0,-99.9,-99.9,-99.9,0,0,100,0.00,40.00,4,-277,6,0.00
2013-1-21,72.0,64.3,60.0,-99.9,-99.9,-99.9,0,0,100,0.00,40.00,3,-153,5,0.00
2013-1-22,74.0,65.8,61.0,-99.9,-99.9,-99.9,0,0,100,0.00,40.00,3,-89,6,0.00
2013-1-23,73.0,66.8,61.0,-99.9,-99.9,-99.9,0,0,100,0.00,40.00,13,-86,15,0.00
2013-1-24,74.0,67.9,63.0,-99.9,-99.9,-99.9,0,0,100,0.00,40.00,15,10,19,0.00
2013-1-25,76.0,69.2,64.0,-99.9,-99.9,-99.9,0,0,100,0.00,40.00,23,13,30,0.00
2013-1-26,75.0,68.9,64.0,-99.9,-99.9,-99.9,0,0,100,0.00,40.00,19,9,24,0.00
2013-1-27,77.0,70.1,66.0,-99.9,-99.9,-99.9,0,0,100,0.00,40.00,22,10,30,0.00
2013-1-28,74.0,70.7,68.0,-99.9,-99.9,-99.9,0,0,100,0.00,40.00,23,15,29,0.00
2013-1-29,80.0,73.9,70.0,-99.9,-99.9,-99.9,0,0,100,0.00,40.00,31,21,44,0.00
2013-1-30,73.0,65.5,61.0,-99.9,-99.9,-99.9,0,0,100,0.00,40.00,26,15,34,0.00
2013-1-31,70.0,62.6,51.0,-99.9,-99.9,-99.9,0,0,100,0.00,40.00,9,-50,12,0.00
2013-2-1,71.0,64.6,59.0,-99.9,-99.9,-99.9,0,0,100,0.00,40.00,3,-96,7,0.00
2013-2-2,75.0,67.8,63.0,-99.9,-99.9,-99.9,0,0,100,0.00,40.00,6,-290,11,0.00
2013-2-3,76.0,67.3,63.0,-99.9,-99.9,-99.9,0,0,100,0.00,40.00,5,-276,9,0.00
2013-2-4,78.0,70.5,66.0,-99.9,-99.9,-99.9,0,0,100,0.00,40.00,22,11,29,0.00
2013-2-5,77.0,70.4,65.0,-99.9,-99.9,-99.9,0,0,100,0.00,40.00,13,5,17,0.00
2013-2-6,80.0,72.3,68.0,-99.9,-99.9,-99.9,0,0,100,0.00,40.00,21,-76,28,0.00
2013-2-7,75.0,69.5,66.0,-99.9,-99.9,-99.9,0,0,100,0.00,40.00,4,-265,7,0.00
2013-2-8,68.0,66.0,65.0,-99.9,-99.9,-99.9,0,0,100,0.00,40.00,10,-59,19,0.00
2013-2-9,74.0,69.9,65.0,-99.9,-99.9,-99.9,0,0,100,0.00,40.00,21,6,26,0.00
2013-2-10,83.0,74.6,70.0,-99.9,-99.9,-99.9,0,0,100,0.00,40.00,26,-7,34,0.00
2013-2-11,78.0,70.6,68.0,-99.9,-99.9,-99.9,0,0,100,0.00,40.00,8,-33,12,0.00
2013-2-12,71.0,68.2,65.0,-99.9,-99.9,-99.9,0,0,100,0.00,40.00,12,-139,17,0.00
2013-2-13,67.0,61.6,58.0,-99.9,-99.9,-99.9,0,0,100,0.00,40.00,17,8,27,0.00
2013-2-14,69.0,63.1,60.0,-99.9,-99.9,-99.9,0,0,100,0.00,40.00,4,1,9,0.00
2013-2-15,72.0,64.5,56.0,-99.9,-99.9,-99.9,0,0,100,0.00,40.00,3,-159,6,0.00
2013-2-16,64.0,59.1,54.0,-99.9,-99.9,-99.9,0,0,100,0.00,40.00,16,7,29,0.00
2013-2-17,68.0,63.3,54.0,-99.9,-99.9,-99.9,0,0,100,0.00,40.00,24,11,29,0.00
2013-2-18,77.0,70.3,66.0,-99.9,-99.9,-99.9,0,0,100,0.00,40.00,28,17,37,0.00
2013-2-19,72.0,67.0,64.0,-99.9,-99.9,-99.9,0,0,100,0.00,40.00,7,-96,10,0.00
2013-2-20,73.0,69.9,66.0,-99.9,-99.9,-99.9,0,0,100,0.00,40.00,29,12,38,0.00
2013-2-21,81.0,74.0,69.0,-99.9,-99.9,-99.9,0,0,100,0.00,40.00,30,-28,38,0.00
2013-2-22,73.0,68.9,67.0,-99.9,-99.9,-99.9,0,0,100,0.00,40.00,10,-33,17,0.00
2013-2-23,68.0,63.1,62.0,-99.9,-99.9,-99.9,0,0,100,0.00,40.00,18,-14,24,0.00
2013-2-24,76.0,69.3,64.0,-99.9,-99.9,-99.9,0,0,100,0.00,40.00,15,-26,18,0.00
2013-2-25,75.0,70.6,63.0,-99.9,-99.9,-99.9,0,0,100,0.00,40.00,24,14,34,0.00
2013-2-26,68.0,59.3,49.0,-99.9,-99.9,-99.9,0,0,100,0.00,40.00,21,8,28,0.00
2013-2-27,76.0,66.2,59.0,-99.9,-99.9,-99.9,0,0,100,0.00,40.00,11,-10,17,0.00
2013-2-28,64.0,59.5,57.0,-99.9,-99.9,-99.9,0,0,100,0.00,40.00,12,-434,24,0.00
2013-3-1,69.0,60.8,55.0,-99.9,-99.9,-99.9,0,0,100,0.00,40.00,0,-999,0,0.00
2013-3-2,61.0,57.0,49.0,-99.9,-99.9,-99.9,0,0,100,0.00,40.00,0,-999,0,0.00
2013-3-3,69.0,60.5,47.0,-99.9,-99.9,-99.9,0,0,100,0.00,40.00,0,-999,0,0.00
2013-3-4,77.0,69.1,63.0,-99.9,-99.9,-99.9,0,0,100,0.00,40.00,0,-999,0,0.00
2013-3-5,75.0,66.2,62.0,-99.9,-99.9,-99.9,0,0,100,0.00,40.00,0,-999,0,0.00
2013-3-6,66.0,62.6,60.0,-99.9,-99.9,-99.9,0,0,100,0.00,40.00,0,-999,0,0.00
2013-3-7,74.0,67.6,62.0,-99.9,-99.9,-99.9,0,0,100,0.00,40.00,0,-999,0,0.00
2013-3-8,73.0,70.1,68.0,-99.9,-99.9,-99.9,0,0,100,0.00,40.00,0,-999,0,0.00
2013-3-9,75.0,71.3,69.0,-99.9,-99.9,-99.9,0,0,100,0.00,40.00,0,-999,0,0.00
2013-3-10,75.0,69.6,67.0,-99.9,-99.9,-99.9,0,0,100,0.00,40.00,0,-999,0,0.00
2013-3-11,68.0,63.1,57.0,-99.9,-99.9,-99.9,0,0,100,0.00,40.00,0,-999,0,0.00
2013-3-12,73.0,62.4,52.0,-99.9,-99.9,-99.9,0,0,100,0.00,40.00,0,-999,0,0.00
2013-3-13,72.0,66.2,56.0,-99.9,-99.9,-99.9,0,0,100,0.00,40.00,0,-999,0,0.00
2013-3-14,74.0,68.3,64.0,-99.9,-99.9,-99.9,0,0,100,0.00,40.00,0,-999,0,0.00
2013-3-15,73.0,68.4,64.0,-99.9,-99.9,-99.9,0,0,100,0.00,40.00,0,-999,0,0.00
2013-3-16,74.0,69.6,67.0,-99.9,-99.9,-99.9,0,0,100,0.00,40.00,0,-999,0,0.00
2013-3-17,76.0,71.6,68.0,-99.9,-99.9,-99.9,0,0,100,0.00,40.00,0,-999,0,0.00
2013-3-18,87.0,73.8,69.0,-99.9,-99.9,-99.9,0,0,100,0.00,40.00,0,-999,0,0.00
2013-3-19,78.0,71.9,66.0,-99.9,-99.9,-99.9,0,0,100,0.00,40.00,0,-999,0,0.00
2013-3-20,73.0,70.1,66.0,-99.9,-99.9,-99.9,0,0,100,0.00,40.00,0,-999,0,0.00
2013-3-21,73.0,69.8,66.0,-99.9,-99.9,-99.9,0,0,100,0.00,40.00,0,-999,0,0.00
2013-3-22,76.0,72.5,70.0,-99.9,-99.9,-99.9,0,0,100,0.00,40.00,0,-999,0,0.00
2013-3-23,83.0,73.6,69.0,-99.9,-99.9,-99.9,0,0,100,0.00,40.00,0,-999,0,0.00
2013-3-24,71.0,66.7,63.0,-99.9,-99.9,-99.9,0,0,100,0.00,40.00,0,-999,0,0.00
2013-3-25,64.0,61.6,60.0,-99.9,-99.9,-99.9,0,0,100,0.00,40.00,0,-999,0,0.00
2013-3-26,67.0,62.7,61.0,-99.9,-99.9,-99.9,0,0,100,0.00,40.00,0,-999,0,0.00
2013-3-27,68.0,64.9,62.0,-99.9,-99.9,-99.9,0,0,100,0.00,40.00,0,-999,0,0.00
2013-3-28,71.0,68.3,65.0,-99.9,-99.9,-99.9,0,0,100,0.00,40.00,0,-999,0,0.00
2013-3-29,74.0,70.2,67.0,-99.9,-99.9,-99.9,0,0,100,0.00,40.00,0,-999,0,0.00
2013-3-30,75.0,71.6,69.0,-99.9,-99.9,-99.9,0,0,100,0.00,40.00,0,-999,0,0.00
2013-3-31,78.0,72.1,69.0,-99.9,-99.9,-99.9,0,0,100,0.00,40.00,0,-999,0,0.00
2013-4-1,81.0,73.5,70.0,-99.9,-99.9,-99.9,0,0,100,0.00,40.00,0,-999,0,0.00
2013-4-2,77.0,73.3,71.0,-99.9,-99.9,-99.9,0,0,100,0.00,40.00,0,-999,0,0.00
2013-4-3,74.0,70.2,65.0,-99.9,-99.9,-99.9,0,0,100,0.00,40.00,0,-999,0,0.00
2013-4-4,69.0,63.3,58.0,-99.9,-99.9,-99.9,0,0,100,0.00,40.00,0,-999,0,0.00
2013-4-5,71.0,65.1,62.0,-99.9,-99.9,-99.9,0,0,100,0.00,40.00,0,-999,0,0.00
2013-4-6,73.0,69.3,66.0,-99.9,-99.9,-99.9,0,0,100,0.00,40.00,0,-999,0,0.00
2013-4-7,75.0,71.6,69.0,-99.9,-99.9,-99.9,0,0,100,0.00,40.00,0,-999,0,0.00
2013-4-8,77.0,73.0,71.0,-99.9,-99.9,-99.9,0,0,100,0.00,40.00,0,-999,0,0.00
2013-4-9,81.0,75.1,72.0,-99.9,-99.9,-99.9,0,0,100,0.00,40.00,0,-999,0,0.00
2013-4-10,87.0,75.6,65.0,-99.9,-99.9,-99.9,0,0,100,0.00,40.00,0,-999,0,0.00
2013-4-11,65.0,62.1,56.0,-99.9,-99.9,-99.9,0,0,100,0.00,40.00,0,-999,0,0.00
2013-4-12,77.0,68.6,59.0,-99.9,-99.9,-99.9,0,0,100,0.00,40.00,0,-999,0,0.00
2013-4-13,76.0,71.5,69.0,-99.9,-99.9,-99.9,0,0,100,0.00,40.00,0,-999,0,0.00
2013-4-14,78.0,72.9,70.0,-99.9,-99.9,-99.9,0,0,100,0.00,40.00,0,-999,0,0.00
2013-4-15,78.0,74.9,72.0,-99.9,-99.9,-99.9,0,0,100,0.00,40.00,0,-999,0,0.00
2013-4-16,80.0,75.4,73.0,-99.9,-99.9,-99.9,0,0,100,0.00,40.00,0,-999,0,0.00
2013-4-17,81.0,76.2,74.0,-99.9,-99.9,-99.9,0,0,100,0.00,40.00,0,-999,0,0.00
2013-4-18,95.0,76.5,65.0,-99.9,-99.9,-99.9,0,0,100,0.00,40.00,0,-999,0,0.00
2013-4-19,65.0,62.8,58.0,-99.9,-99.9,-99.9,0,0,100,0.00,40.00,0,-999,0,0.00
2013-4-20,73.0,64.2,52.0,-99.9,-99.9,-99.9,0,0,100,0.00,40.00,0,-999,0,0.00
2013-4-21,79.0,71.9,67.0,-99.9,-99.9,-99.9,0,0,100,0.00,40.00,0,-999,0,0.00
2013-4-22,77.0,73.5,71.0,-99.9,-99.9,-99.9,0,0,100,0.00,40.00,0,-999,0,0.00
2013-4-23,76.0,73.9,72.0,-99.9,-99.9,-99.9,0,0,100,0.00,40.00,0,-999,0,0.00
2013-4-24,74.0,64.5,54.0,-99.9,-99.9,-99.9,0,0,100,0.00,40.00,0,-999,0,0.00
2013-4-25,70.0,63.3,55.0,-99.9,-99.9,-99.9,0,0,100,0.00,40.00,0,-999,0,0.00
2013-4-26,76.0,69.9,64.0,-99.9,-99.9,-99.9,0,0,100,0.00,40.00,0,-999,0,0.00
2013-4-27,78.0,74.4,72.0,-99.9,-99.9,-99.9,0,0,100,0.00,40.00,0,-999,0,0.00
2013-4-28,75.0,72.0,65.0,-99.9,-99.9,-99.9,0,0,100,0.00,40.00,0,-999,0,0.00
2013-4-29,78.0,72.6,69.0,-99.9,-99.9,-99.9,0,0,100,0.00,40.00,0,-999,0,0.00
2013-4-30,82.0,75.0,69.0,-99.9,-99.9,-99.9,0,0,100,0.00,40.00,0,-999,0,0.00
2013-5-1,82.0,77.1,74.0,-99.9,-99.9,-99.9,0,0,100,0.00,40.00,0,-999,0,0.00
2013-5-2,80.0,74.5,64.0,-99.9,-99.9,-99.9,0,0,100,0.00,40.00,0,-999,0,0.00
2013-5-3,68.0,61.9,56.0,-99.9,-99.9,-99.9,0,0,100,0.00,40.00,0,-999,0,0.00
2013-5-4,74.0,66.6,55.0,-99.9,-99.9,-99.9,0,0,100,0.00,40.00,0,-999,0,0.00
2013-5-5,78.0,70.9,64.0,-99.9,-99.9,-99.9,0,0,100,0.00,40.00,0,-999,0,0.00
2013-5-6,79.0,72.6,68.0,-99.9,-99.9,-99.9,0,0,100,0.00,40.00,0,-999,0,0.00
2013-5-7,80.0,73.9,70.0,-99.9,-99.9,-99.9,0,0,100,0.00,40.00,0,-999,0,0.00
2013-5-8,77.0,74.1,71.0,-99.9,-99.9,-99.9,0,0,100,0.00,40.00,0,-999,0,0.00
2013-5-9,81.0,75.7,74.0,-99.9,-99.9,-99.9,0,0,100,0.00,40.00,0,-999,0,0.00
2013-5-10,85.0,77.4,74.0,-99.9,-99.9,-99.9,0,0,100,0.00,40.00,0,-999,0,0.00
2013-5-11,78.0,75.0,71.0,-99.9,-99.9,-99.9,0,0,100,0.00,40.00,0,-999,0,0.00
2013-5-12,77.0,73.0,69.0,-99.9,-99.9,-99.9,0,0,100,0.00,40.00,0,-999,0,0.00
2013-5-13,82.0,75.1,72.0,-99.9,-99.9,-99.9,0,0,100,0.00,40.00,0,-999,0,0.00
2013-5-14,79.0,75.4,73.0,-99.9,-99.9,-99.9,0,0,100,0.00,40.00,0,-999,0,0.00
2013-5-15,77.0,75.3,74.0,-99.9,-99.9,-99.9,0,0,100,0.00,40.00,0,-999,0,0.00
2013-5-16,82.0,76.5,74.0,-99.9,-99.9,-99.9,0,0,100,0.00,40.00,0,-999,0,0.00
2013-5-17,87.0,78.6,75.0,-99.9,-99.9,-99.9,0,0,100,0.00,40.00,0,-999,0,0.00
2013-5-18,85.0,78.8,76.0,-99.9,-99.9,-99.9,0,0,100,0.00,40.00,0,-999,0,0.00
2013-5-19,83.0,78.5,77.0,-99.9,-99.9,-99.9,0,0,100,0.00,40.00,0,-999,0,0.00
2013-5-20,81.0,78.7,77.0,-99.9,-99.9,-99.9,0,0,100,0.00,40.00,0,-999,0,0.00
2013-5-21,82.0,78.9,77.0,-99.9,-99.9,-99.9,0,0,100,0.00,40.00,0,-999,0,0.00
2013-5-22,86.0,80.3,78.0,-99.9,-99.9,-99.9,0,0,100,0.00,40.00,0,-999,0,0.00
2013-5-23,85.0,80.3,78.0,-99.9,-99.9,-99.9,0,0,100,0.00,40.00,0,-999,0,0.00
2013-5-24,85.0,80.8,79.0,-99.9,-99.9,-99.9,0,0,100,0.00,40.00,0,-999,0,0.00
2013-5-25,84.0,79.9,74.0,-99.9,-99.9,-99.9,0,0,100,0.00,40.00,0,-999,0,0.00
2013-5-26,83.0,79.8,78.0,-99.9,-99.9,-99.9,0,0,100,0.00,40.00,0,-999,0,0.00
2013-5-27,82.0,79.8,78.0,-99.9,-99.9,-99.9,0,0,100,0.00,40.00,0,-999,0,0.00
2013-5-28,83.0,80.4,78.0,-99.9,-99.9,-99.9,0,0,100,0.00,40.00,0,-999,0,0.00
2013-5-29,83.0,80.4,78.0,-99.9,-99.9,-99.9,0,0,100,0.00,40.00,0,-999,0,0.00
2013-5-30,84.0,80.8,78.0,-99.9,-99.9,-99.9,0,0,100,0.00,40.00,0,-999,0,0.00
2013-5-31,84.0,81.3,79.0,-99.9,-99.9,-99.9,0,0,100,0.00,40.00,0,-999,0,0.00
2013-6-1,86.0,82.0,79.0,-99.9,-99.9,-99.9,0,0,100,0.00,40.00,0,-999,0,0.00
2013-6-2,89.0,82.5,80.0,-99.9,-99.9,-99.9,0,0,100,0.00,40.00,0,-999,0,0.00
2013-6-3,87.0,81.5,78.0,-99.9,-99.9,-99.9,0,0,100,0.00,40.00,0,-999,0,0.00
2013-6-4,89.0,82.3,76.0,-99.9,-99.9,-99.9,0,0,100,0.00,40.00,0,-999,0,0.00
2013-6-5,90.0,83.3,76.0,-99.9,-99.9,-99.9,0,0,100,0.00,40.00,0,-999,0,0.00
2013-6-6,91.0,83.3,77.0,-99.9,-99.9,-99.9,0,0,100,0.00,40.00,0,-999,0,0.00
2013-6-7,91.0,83.9,81.0,-99.9,-99.9,-99.9,0,0,100,0.00,40.00,0,-999,0,0.00
2013-6-8,85.0,81.6,75.0,-99.9,-99.9,-99.9,0,0,100,0.00,40.00,0,-999,0,0.00
2013-6-9,90.0,83.7,78.0,-99.9,-99.9,-99.9,0,0,100,0.00,40.00,0,-999,0,0.00
2013-6-10,89.0,83.4,81.0,-99.9,-99.9,-99.9,0,0,100,0.00,40.00,0,-999,0,0.00
2013-6-11,85.0,80.1,32.0,-99.9,-99.9,-99.9,0,0,100,0.00,40.00,0,-999,0,0.00
2013-6-12,86.0,82.2,78.0,-99.9,-99.9,-99.9,0,0,100,0.00,40.00,0,-999,0,0.00
2013-6-13,85.0,82.4,79.0,-99.9,-99.9,-99.9,0,0,100,0.00,40.00,0,-999,0,0.00
2013-6-14,89.0,83.4,82.0,-99.9,-99.9,-99.9,0,0,100,0.00,40.00,0,-999,0,0.00
2013-6-15,87.0,83.4,81.0,-99.9,-99.9,-99.9,0,0,100,0.00,40.00,0,-999,0,0.00
2013-6-16,86.0,83.2,81.0,-99.9,-99.9,-99.9,0,0,100,0.00,40.00,0,-999,0,0.00
2013-6-17,87.0,83.5,81.0,-99.9,-99.9,-99.9,0,0,100,0.00,40.00,0,-999,0,0.00
2013-6-18,87.0,83.3,80.0,-99.9,-99.9,-99.9,0,0,100,0.00,40.00,0,-999,0,0.00
2013-6-19,86.0,83.2,80.0,-99.9,-99.9,-99.9,0,0,100,0.00,40.00,0,-999,0,0.00
2013-6-20,88.0,83.2,81.0,-99.9,-99.9,-99.9,0,0,100,0.00,40.00,0,-999,0,0.00
2013-6-22,87.0,84.2,82.0,-99.9,-99.9,-99.9,0,0,100,0.00,40.00,0,-999,0,0.00
2013-6-23,86.0,82.7,80.0,-99.9,-99.9,-99.9,0,0,100,0.00,40.00,0,-999,0,0.00
2013-6-24,86.0,83.1,81.0,-99.9,-99.9,-99.9,0,0,100,0.00,40.00,0,-999,0,0.00
2013-6-25,86.0,82.7,80.0,-99.9,-99.9,-99.9,0,0,100,0.00,40.00,0,-999,0,0.00
2013-6-26,87.0,83.1,80.0,-99.9,-99.9,-99.9,0,0,100,0.00,40.00,0,-999,0,0.00
2013-6-27,87.0,82.9,80.0,-99.9,-99.9,-99.9,0,0,100,0.00,40.00,0,-999,0,0.00
2013-6-28,89.0,83.3,79.0,-99.9,-99.9,-99.9,0,0,100,0.00,40.00,0,-999,0,0.00
2013-6-29,94.0,84.0,78.0,-99.9,-99.9,-99.9,0,0,100,0.00,40.00,0,-999,0,0.00
2013-6-30,91.0,82.0,78.0,-99.9,-99.9,-99.9,0,0,100,0.00,40.00,0,-999,0,0.00
2013-7-1,93.0,83.8,77.0,-99.9,-99.9,-99.9,0,0,100,0.00,40.00,0,-999,0,0.00
2013-7-2,90.0,82.3,77.0,-99.9,-99.9,-99.9,0,0,100,0.00,40.00,0,-999,0,0.00
2013-7-3,89.0,81.3,74.0,-99.9,-99.9,-99.9,0,0,100,0.00,40.00,0,-999,0,0.00
2013-7-4,90.0,82.3,74.0,-99.9,-99.9,-99.9,0,0,100,0.00,40.00,0,-999,0,0.00
2013-7-5,90.0,84.3,80.0,-99.9,-99.9,-99.9,0,0,100,0.00,40.00,0,-999,0,0.00
2013-7-6,91.0,83.6,81.0,-99.9,-99.9,-99.9,0,0,100,0.00,40.00,0,-999,0,0.00
2013-7-7,85.0,80.2,74.0,-99.9,-99.9,-99.9,0,0,100,0.00,40.00,0,-999,0,0.00
2013-7-8,86.0,81.1,74.0,-99.9,-99.9,-99.9,0,0,100,0.00,40.00,0,-999,0,0.00
2013-7-9,89.0,83.7,80.0,-99.9,-99.9,-99.9,0,0,100,0.00,40.00,0,-999,0,0.00
2013-7-10,87.0,83.5,81.0,-99.9,-99.9,-99.9,0,0,100,0.00,40.00,0,-999,0,0.00
2013-7-11,87.0,83.7,80.0,-99.9,-99.9,-99.9,0,0,100,0.00,40.00,0,-999,0,0.00
2013-7-12,88.0,83.7,80.0,-99.9,-99.9,-99.9,0,0,100,0.00,40.00,0,-999,0,0.00
2013-7-13,90.0,84.4,80.0,-99.9,-99.9,-99.9,0,0,100,0.00,40.00,0,-999,0,0.00
2013-7-14,88.0,83.5,80.0,-99.9,-99.9,-99.9,0,0,100,0.00,40.00,0,-999,0,0.00
2013-7-15,87.0,83.6,81.0,-99.9,-99.9,-99.9,0,0,100,0.00,40.00,0,-999,0,0.00
2013-7-16,87.0,81.2,76.0,-99.9,-99.9,-99.9,0,0,100,0.00,40.00,0,-999,0,0.00
2013-7-17,83.0,77.7,73.0,-99.9,-99.9,-99.9,0,0,100,0.00,40.00,0,-999,0,0.00
2013-7-18,86.0,80.8,77.0,-99.9,-99.9,-99.9,0,0,100,0.00,40.00,0,-999,0,0.00
2013-7-19,91.0,83.6,77.0,-99.9,-99.9,-99.9,0,0,100,0.00,40.00,0,-999,0,0.00
2013-7-20,86.0,82.4,78.0,-99.9,-99.9,-99.9,0,0,100,0.00,40.00,0,-999,0,0.00
2013-7-21,87.0,83.7,82.0,-99.9,-99.9,-99.9,0,0,100,0.00,40.00,0,-999,0,0.00
2013-7-22,88.0,84.0,82.0,-99.9,-99.9,-99.9,0,0,100,0.00,40.00,0,-999,0,0.00
2013-7-23,87.0,83.7,81.0,-99.9,-99.9,-99.9,0,0,100,0.00,40.00,0,-999,0,0.00
2013-7-24,86.0,83.5,81.0,-99.9,-99.9,-99.9,0,0,100,0.00,40.00,0,-999,0,0.00
2013-7-25,87.0,83.9,81.0,-99.9,-99.9,-99.9,0,0,100,0.00,40.00,0,-999,0,0.00
2013-7-26,88.0,84.1,81.0,-99.9,-99.9,-99.9,0,0,100,0.00,40.00,0,-999,0,0.00
2013-7-27,91.0,84.4,80.0,-99.9,-99.9,-99.9,0,0,100,0.00,40.00,0,-999,0,0.00
2013-7-28,89.0,83.9,80.0,-99.9,-99.9,-99.9,0,0,100,0.00,40.00,0,-999,0,0.00
2013-7-29,86.0,83.1,80.0,-99.9,-99.9,-99.9,0,0,100,0.00,40.00,0,-999,0,0.00
2013-7-30,87.0,83.5,80.0,-99.9,-99.9,-99.9,0,0,100,0.00,40.00,0,-999,0,0.00
2013-7-31,87.0,83.4,80.0,-99.9,-99.9,-99.9,0,0,100,0.00,40.00,0,-999,0,0.00
2013-8-1,90.0,83.5,79.0,-99.9,-99.9,-99.9,0,0,100,0.00,40.00,0,-999,0,0.00
2013-8-2,87.0,83.7,80.0,-99.9,-99.9,-99.9,0,0,100,0.00,40.00,0,-999,0,0.00
2013-8-3,89.0,84.3,81.0,-99.9,-99.9,-99.9,0,0,100,0.00,40.00,0,-999,0,0.00
2013-8-4,87.0,84.0,81.0,-99.9,-99.9,-99.9,0,0,100,0.00,40.00,0,-999,0,0.00
2013-8-5,89.0,83.7,81.0,-99.9,-99.9,-99.9,0,0,100,0.00,40.00,0,-999,0,0.00
2013-8-6,93.0,84.9,82.0,-99.9,-99.9,-99.9,0,0,100,0.00,40.00,0,-999,0,0.00
2013-8-7,90.0,84.1,81.0,-99.9,-99.9,-99.9,0,0,100,0.00,40.00,0,-999,0,0.00
2013-8-8,90.0,83.7,81.0,-99.9,-99.9,-99.9,0,0,100,0.00,40.00,0,-999,0,0.00
2013-8-9,91.0,84.4,79.0,-99.9,-99.9,-99.9,0,0,100,0.00,40.00,0,-999,0,0.00
2013-8-10,86.0,82.9,81.0,-99.9,-99.9,-99.9,0,0,100,0.00,40.00,0,-999,0,0.00
2013-8-11,87.0,81.6,79.0,-99.9,-99.9,-99.9,0,0,100,0.00,40.00,0,-999,0,0.00
2013-8-31,88.0,85.8,83.0,-99.9,-99.9,-99.9,0,0,100,0.00,40.00,0,-999,0,0.00
2013-9-1,87.0,85.4,84.0,-99.9,-99.9,-99.9,0,0,100,0.00,40.00,0,-999,0,0.00
2013-9-2,87.0,85.2,82.0,-99.9,-99.9,-99.9,0,0,100,0.00,40.00,0,-999,0,0.00
2013-9-3,92.0,87.2,84.0,-99.9,-99.9,-99.9,0,0,100,0.00,40.00,0,-999,0,0.00
2013-9-4,88.0,83.4,79.0,-99.9,-99.9,-99.9,0,0,100,0.00,40.00,0,-999,0,0.00
2013-9-5,87.0,84.5,83.0,-99.9,-99.9,-99.9,0,0,100,0.00,40.00,0,-999,0,0.00
2013-9-6,89.0,85.0,80.0,-99.9,-99.9,-99.9,0,0,100,0.00,40.00,0,-999,0,0.00